sensor_id;sensor_type;location;lat;lon;timestamp;pressure;altitude;pressure_sealevel;temperature;humidity
54453;BME280;40363;52.270;10.546;2023-02-15T00:00:53;79123.09;;;-147.06;100.00
54453;BME280;40363;52.270;10.546;2023-02-15T00:03:20;79104.59;;;-147.06;100.00
54453;BME280;40363;52.270;10.546;2023-02-15T00:05:48;79104.59;;;-147.06;100.00
54453;BME280;40363;52.270;10.546;2023-02-15T00:08:15;79106.63;;;-147.06;100.00
54453;BME280;40363;52.270;10.546;2023-02-15T00:10:42;79100.47;;;-147.06;100.00
54453;BME280;40363;52.270;10.546;2023-02-15T00:13:08;79096.34;;;-147.06;100.00
54453;BME280;40363;52.270;10.546;2023-02-15T00:15:35;79123.09;;;-147.06;100.00
54453;BME280;40363;52.270;10.546;2023-02-15T00:18:02;79133.38;;;-147.06;100.00
54453;BME280;40363;52.270;10.546;2023-02-15T00:20:28;79129.25;;;-147.06;100.00
54453;BME280;40363;52.270;10.546;2023-02-15T00:22:56;79116.91;;;-147.06;100.00
54453;BME280;40363;52.270;10.546;2023-02-15T00:25:23;79129.25;;;-147.06;100.00
54453;BME280;40363;52.270;10.546;2023-02-15T00:27:50;79125.16;;;-147.06;100.00
54453;BME280;40363;52.270;10.546;2023-02-15T00:30:16;79106.63;;;-147.06;100.00
54453;BME280;40363;52.270;10.546;2023-02-15T00:32:43;79108.69;;;-147.06;100.00
54453;BME280;40363;52.270;10.546;2023-02-15T00:35:10;79112.81;;;-147.06;100.00
54453;BME280;40363;52.270;10.546;2023-02-15T00:37:36;79108.69;;;-147.06;100.00
54453;BME280;40363;52.270;10.546;2023-02-15T00:40:07;79129.25;;;-147.06;100.00
54453;BME280;40363;52.270;10.546;2023-02-15T00:42:33;79178.63;;;-147.06;100.00
54453;BME280;40363;52.270;10.546;2023-02-15T00:45:00;79186.84;;;-147.06;100.00
54453;BME280;40363;52.270;10.546;2023-02-15T00:47:27;79164.22;;;-147.06;100.00
54453;BME280;40363;52.270;10.546;2023-02-15T00:49:54;79149.84;;;-147.06;100.00
54453;BME280;40363;52.270;10.546;2023-02-15T00:52:20;79147.78;;;-147.06;100.00
54453;BME280;40363;52.270;10.546;2023-02-15T00:54:47;79145.72;;;-147.06;100.00
54453;BME280;40363;52.270;10.546;2023-02-15T00:57:15;79133.38;;;-147.06;100.00
54453;BME280;40363;52.270;10.546;2023-02-15T00:59:42;79131.31;;;-147.06;100.00
54453;BME280;40363;52.270;10.546;2023-02-15T01:02:08;79127.22;;;-147.06;100.00
54453;BME280;40363;52.270;10.546;2023-02-15T01:04:35;79100.47;;;-147.06;100.00
54453;BME280;40363;52.270;10.546;2023-02-15T01:07:02;79108.69;;;-147.06;100.00
54453;BME280;40363;52.270;10.546;2023-02-15T01:09:29;79086.06;;;-147.06;100.00
54453;BME280;40363;52.270;10.546;2023-02-15T01:11:55;79081.97;;;-147.06;100.00
54453;BME280;40363;52.270;10.546;2023-02-15T01:14:23;79075.78;;;-147.06;100.00
54453;BME280;40363;52.270;10.546;2023-02-15T01:16:50;79073.72;;;-147.06;100.00
54453;BME280;40363;52.270;10.546;2023-02-15T01:19:17;79071.69;;;-147.06;100.00
54453;BME280;40363;52.270;10.546;2023-02-15T01:21:44;79063.44;;;-147.06;100.00
54453;BME280;40363;52.270;10.546;2023-02-15T01:24:12;79057.28;;;-147.06;100.00
54453;BME280;40363;52.270;10.546;2023-02-15T01:26:39;79053.16;;;-147.06;100.00
54453;BME280;40363;52.270;10.546;2023-02-15T01:29:06;79057.28;;;-147.06;100.00
54453;BME280;40363;52.270;10.546;2023-02-15T01:31:34;79032.59;;;-147.06;100.00
54453;BME280;40363;52.270;10.546;2023-02-15T01:34:00;79042.88;;;-147.06;100.00
54453;BME280;40363;52.270;10.546;2023-02-15T01:36:27;79059.34;;;-147.06;100.00
54453;BME280;40363;52.270;10.546;2023-02-15T01:38:54;79042.88;;;-147.06;100.00
54453;BME280;40363;52.270;10.546;2023-02-15T01:41:21;79034.66;;;-147.06;100.00
54453;BME280;40363;52.270;10.546;2023-02-15T01:43:51;79026.44;;;-147.06;100.00
54453;BME280;40363;52.270;10.546;2023-02-15T01:46:20;79026.44;;;-147.06;100.00
54453;BME280;40363;52.270;10.546;2023-02-15T01:48:54;79014.09;;;-147.06;100.00
54453;BME280;40363;52.270;10.546;2023-02-15T01:51:24;79007.91;;;-147.06;100.00
54453;BME280;40363;52.270;10.546;2023-02-15T01:53:55;79016.16;;;-147.06;100.00
54453;BME280;40363;52.270;10.546;2023-02-15T01:56:28;79012.03;;;-147.06;100.00
54453;BME280;40363;52.270;10.546;2023-02-15T01:58:57;79022.31;;;-147.06;100.00
54453;BME280;40363;52.270;10.546;2023-02-15T02:01:27;79009.97;;;-147.06;100.00
54453;BME280;40363;52.270;10.546;2023-02-15T02:04:02;79016.16;;;-147.06;100.00
54453;BME280;40363;52.270;10.546;2023-02-15T02:06:33;79018.19;;;-147.06;100.00
54453;BME280;40363;52.270;10.546;2023-02-15T02:09:02;79034.66;;;-147.06;100.00
54453;BME280;40363;52.270;10.546;2023-02-15T02:11:28;79038.78;;;-147.06;100.00
54453;BME280;40363;52.270;10.546;2023-02-15T02:13:55;79018.19;;;-147.06;100.00
54453;BME280;40363;52.270;10.546;2023-02-15T02:16:26;79030.53;;;-147.06;100.00
54453;BME280;40363;52.270;10.546;2023-02-15T02:19:09;79022.31;;;-147.06;100.00
54453;BME280;40363;52.270;10.546;2023-02-15T02:25:12;79018.19;;;-147.06;100.00
54453;BME280;40363;52.270;10.546;2023-02-15T02:27:48;79018.19;;;-147.06;100.00
54453;BME280;40363;52.270;10.546;2023-02-15T02:30:48;79022.31;;;-147.06;100.00
54453;BME280;40363;52.270;10.546;2023-02-15T02:33:42;79040.81;;;-147.06;100.00
54453;BME280;40363;52.270;10.546;2023-02-15T02:36:19;79042.88;;;-147.06;100.00
54453;BME280;40363;52.270;10.546;2023-02-15T02:39:06;79022.31;;;-147.06;100.00
54453;BME280;40363;52.270;10.546;2023-02-15T02:41:41;79030.53;;;-147.06;100.00
54453;BME280;40363;52.270;10.546;2023-02-15T02:44:14;79051.09;;;-147.06;100.00
54453;BME280;40363;52.270;10.546;2023-02-15T02:46:47;79057.28;;;-147.06;100.00
54453;BME280;40363;52.270;10.546;2023-02-15T02:49:17;79049.06;;;-147.06;100.00
54453;BME280;40363;52.270;10.546;2023-02-15T02:51:43;79042.88;;;-147.06;100.00
54453;BME280;40363;52.270;10.546;2023-02-15T02:54:10;79038.78;;;-147.06;100.00
54453;BME280;40363;52.270;10.546;2023-02-15T02:56:40;79042.88;;;-147.06;100.00
54453;BME280;40363;52.270;10.546;2023-02-15T02:59:13;79051.09;;;-147.06;100.00
54453;BME280;40363;52.270;10.546;2023-02-15T03:01:47;79038.78;;;-147.06;100.00
54453;BME280;40363;52.270;10.546;2023-02-15T03:04:20;79038.78;;;-147.06;100.00
54453;BME280;40363;52.270;10.546;2023-02-15T03:06:50;79049.06;;;-147.06;100.00
54453;BME280;40363;52.270;10.546;2023-02-15T03:09:23;79034.66;;;-147.06;100.00
54453;BME280;40363;52.270;10.546;2023-02-15T03:12:00;79051.09;;;-147.06;100.00
54453;BME280;40363;52.270;10.546;2023-02-15T03:14:27;79063.44;;;-147.06;100.00
54453;BME280;40363;52.270;10.546;2023-02-15T03:16:54;79055.22;;;-147.06;100.00
54453;BME280;40363;52.270;10.546;2023-02-15T03:19:24;79079.91;;;-147.06;100.00
54453;BME280;40363;52.270;10.546;2023-02-15T03:21:56;79079.91;;;-147.06;100.00
54453;BME280;40363;52.270;10.546;2023-02-15T03:24:32;79086.06;;;-147.06;100.00
54453;BME280;40363;52.270;10.546;2023-02-15T03:27:02;79092.25;;;-147.06;100.00
54453;BME280;40363;52.270;10.546;2023-02-15T03:29:30;79100.47;;;-147.06;100.00
54453;BME280;40363;52.270;10.546;2023-02-15T03:32:00;79114.88;;;-147.06;100.00
54453;BME280;40363;52.270;10.546;2023-02-15T03:34:30;79104.59;;;-147.06;100.00
54453;BME280;40363;52.270;10.546;2023-02-15T03:37:01;79116.91;;;-147.06;100.00
54453;BME280;40363;52.270;10.546;2023-02-15T03:39:33;79125.16;;;-147.06;100.00
54453;BME280;40363;52.270;10.546;2023-02-15T03:42:08;79123.09;;;-147.06;100.00
54453;BME280;40363;52.270;10.546;2023-02-15T03:44:42;79139.53;;;-147.06;100.00
54453;BME280;40363;52.270;10.546;2023-02-15T03:47:16;79137.50;;;-147.06;100.00
54453;BME280;40363;52.270;10.546;2023-02-15T03:49:50;79125.16;;;-147.06;100.00
54453;BME280;40363;52.270;10.546;2023-02-15T03:52:20;79118.97;;;-147.06;100.00
54453;BME280;40363;52.270;10.546;2023-02-15T03:54:47;79112.81;;;-147.06;100.00
54453;BME280;40363;52.270;10.546;2023-02-15T03:57:18;79118.97;;;-147.06;100.00
54453;BME280;40363;52.270;10.546;2023-02-15T04:00:06;79108.69;;;-147.06;100.00
54453;BME280;40363;52.270;10.546;2023-02-15T04:05:48;79137.50;;;-147.06;100.00
54453;BME280;40363;52.270;10.546;2023-02-15T04:08:15;79139.53;;;-147.06;100.00
54453;BME280;40363;52.270;10.546;2023-02-15T04:10:42;79137.50;;;-147.06;100.00
54453;BME280;40363;52.270;10.546;2023-02-15T04:13:22;79137.50;;;-147.06;100.00
54453;BME280;40363;52.270;10.546;2023-02-15T04:15:50;79153.94;;;-147.06;100.00
54453;BME280;40363;52.270;10.546;2023-02-15T04:18:32;79153.94;;;-147.06;100.00
54453;BME280;40363;52.270;10.546;2023-02-15T04:21:19;79153.94;;;-147.06;100.00
54453;BME280;40363;52.270;10.546;2023-02-15T04:24:04;79160.13;;;-147.06;100.00
54453;BME280;40363;52.270;10.546;2023-02-15T04:26:49;79164.22;;;-147.06;100.00
54453;BME280;40363;52.270;10.546;2023-02-15T04:29:18;79158.06;;;-147.06;100.00
54453;BME280;40363;52.270;10.546;2023-02-15T04:31:45;79162.16;;;-147.06;100.00
54453;BME280;40363;52.270;10.546;2023-02-15T04:34:12;79166.28;;;-147.06;100.00
54453;BME280;40363;52.270;10.546;2023-02-15T04:36:40;79174.50;;;-147.06;100.00
54453;BME280;40363;52.270;10.546;2023-02-15T04:39:07;79193.03;;;-147.06;100.00
54453;BME280;40363;52.270;10.546;2023-02-15T04:41:35;79199.19;;;-147.06;100.00
54453;BME280;40363;52.270;10.546;2023-02-15T04:44:02;79197.13;;;-147.06;100.00
54453;BME280;40363;52.270;10.546;2023-02-15T04:46:28;79201.25;;;-147.06;100.00
54453;BME280;40363;52.270;10.546;2023-02-15T04:48:56;79195.06;;;-147.06;100.00
54453;BME280;40363;52.270;10.546;2023-02-15T04:51:22;79190.97;;;-147.06;100.00
54453;BME280;40363;52.270;10.546;2023-02-15T04:53:50;79180.69;;;-147.06;100.00
54453;BME280;40363;52.270;10.546;2023-02-15T04:56:18;79201.25;;;-147.06;100.00
54453;BME280;40363;52.270;10.546;2023-02-15T04:58:44;79190.97;;;-147.06;100.00
54453;BME280;40363;52.270;10.546;2023-02-15T05:01:11;79180.69;;;-147.06;100.00
54453;BME280;40363;52.270;10.546;2023-02-15T05:03:38;79199.19;;;-147.06;100.00
54453;BME280;40363;52.270;10.546;2023-02-15T05:06:05;79195.06;;;-147.06;100.00
54453;BME280;40363;52.270;10.546;2023-02-15T05:08:32;79193.03;;;-147.06;100.00
54453;BME280;40363;52.270;10.546;2023-02-15T05:11:00;79170.41;;;-147.06;100.00
54453;BME280;40363;52.270;10.546;2023-02-15T05:13:26;79168.34;;;-147.06;100.00
54453;BME280;40363;52.270;10.546;2023-02-15T05:15:54;79178.63;;;-147.06;100.00
54453;BME280;40363;52.270;10.546;2023-02-15T05:18:21;79170.41;;;-147.06;100.00
54453;BME280;40363;52.270;10.546;2023-02-15T05:20:49;79176.56;;;-147.06;100.00
54453;BME280;40363;52.270;10.546;2023-02-15T05:23:16;79178.63;;;-147.06;100.00
54453;BME280;40363;52.270;10.546;2023-02-15T05:25:46;79172.47;;;-147.06;100.00
54453;BME280;40363;52.270;10.546;2023-02-15T05:28:33;79178.63;;;-147.06;100.00
54453;BME280;40363;52.270;10.546;2023-02-15T05:31:05;79174.50;;;-147.06;100.00
54453;BME280;40363;52.270;10.546;2023-02-15T05:33:32;79170.41;;;-147.06;100.00
54453;BME280;40363;52.270;10.546;2023-02-15T05:36:00;79170.41;;;-147.06;100.00
54453;BME280;40363;52.270;10.546;2023-02-15T05:38:26;79182.75;;;-147.06;100.00
54453;BME280;40363;52.270;10.546;2023-02-15T05:40:53;79182.75;;;-147.06;100.00
54453;BME280;40363;52.270;10.546;2023-02-15T05:43:21;79186.84;;;-147.06;100.00
54453;BME280;40363;52.270;10.546;2023-02-15T05:45:50;79182.75;;;-147.06;100.00
54453;BME280;40363;52.270;10.546;2023-02-15T05:48:18;79195.06;;;-147.06;100.00
54453;BME280;40363;52.270;10.546;2023-02-15T05:50:46;79203.31;;;-147.06;100.00
54453;BME280;40363;52.270;10.546;2023-02-15T05:53:12;79199.19;;;-147.06;100.00
54453;BME280;40363;52.270;10.546;2023-02-15T05:55:39;79195.06;;;-147.06;100.00
54453;BME280;40363;52.270;10.546;2023-02-15T05:58:06;79178.63;;;-147.06;100.00
54453;BME280;40363;52.270;10.546;2023-02-15T06:00:34;79178.63;;;-147.06;100.00
54453;BME280;40363;52.270;10.546;2023-02-15T06:03:02;79174.50;;;-147.06;100.00
54453;BME280;40363;52.270;10.546;2023-02-15T06:05:29;79182.75;;;-147.06;100.00
54453;BME280;40363;52.270;10.546;2023-02-15T06:07:56;79186.84;;;-147.06;100.00
54453;BME280;40363;52.270;10.546;2023-02-15T06:10:22;79186.84;;;-147.06;100.00
54453;BME280;40363;52.270;10.546;2023-02-15T06:12:49;79184.78;;;-147.06;100.00
54453;BME280;40363;52.270;10.546;2023-02-15T06:15:16;79182.75;;;-147.06;100.00
54453;BME280;40363;52.270;10.546;2023-02-15T06:17:43;79195.06;;;-147.06;100.00
54453;BME280;40363;52.270;10.546;2023-02-15T06:20:12;79190.97;;;-147.06;100.00
54453;BME280;40363;52.270;10.546;2023-02-15T06:22:39;79213.59;;;-147.06;100.00
54453;BME280;40363;52.270;10.546;2023-02-15T06:25:06;79225.94;;;-147.06;100.00
54453;BME280;40363;52.270;10.546;2023-02-15T06:27:35;79213.59;;;-147.06;100.00
54453;BME280;40363;52.270;10.546;2023-02-15T06:30:03;79197.13;;;-147.06;100.00
54453;BME280;40363;52.270;10.546;2023-02-15T06:32:29;79201.25;;;-147.06;100.00
54453;BME280;40363;52.270;10.546;2023-02-15T06:34:56;79201.25;;;-147.06;100.00
54453;BME280;40363;52.270;10.546;2023-02-15T06:37:24;79203.31;;;-147.06;100.00
54453;BME280;40363;52.270;10.546;2023-02-15T06:39:51;79207.41;;;-147.06;100.00
54453;BME280;40363;52.270;10.546;2023-02-15T06:42:17;79223.88;;;-147.06;100.00
54453;BME280;40363;52.270;10.546;2023-02-15T06:44:44;79215.66;;;-147.06;100.00
54453;BME280;40363;52.270;10.546;2023-02-15T06:47:11;79193.03;;;-147.06;100.00
54453;BME280;40363;52.270;10.546;2023-02-15T06:49:37;79182.75;;;-147.06;100.00
54453;BME280;40363;52.270;10.546;2023-02-15T06:52:04;79174.50;;;-147.06;100.00
54453;BME280;40363;52.270;10.546;2023-02-15T06:54:33;79184.78;;;-147.06;100.00
54453;BME280;40363;52.270;10.546;2023-02-15T06:56:59;79205.38;;;-147.06;100.00
54453;BME280;40363;52.270;10.546;2023-02-15T06:59:26;79195.06;;;-147.06;100.00
54453;BME280;40363;52.270;10.546;2023-02-15T07:01:52;79182.75;;;-147.06;100.00
54453;BME280;40363;52.270;10.546;2023-02-15T07:04:19;79174.50;;;-147.06;100.00
54453;BME280;40363;52.270;10.546;2023-02-15T07:06:46;79166.28;;;-147.06;100.00
54453;BME280;40363;52.270;10.546;2023-02-15T07:09:12;79174.50;;;-147.06;100.00
54453;BME280;40363;52.270;10.546;2023-02-15T07:11:40;79180.69;;;-147.06;100.00
54453;BME280;40363;52.270;10.546;2023-02-15T07:14:25;79158.06;;;-147.06;100.00
54453;BME280;40363;52.270;10.546;2023-02-15T07:16:51;79156.00;;;-147.06;100.00
54453;BME280;40363;52.270;10.546;2023-02-15T07:19:18;79158.06;;;-147.06;100.00
54453;BME280;40363;52.270;10.546;2023-02-15T07:21:44;79160.13;;;-147.06;100.00
54453;BME280;40363;52.270;10.546;2023-02-15T07:24:11;79149.84;;;-147.06;100.00
54453;BME280;40363;52.270;10.546;2023-02-15T07:26:38;79151.88;;;-147.06;100.00
54453;BME280;40363;52.270;10.546;2023-02-15T07:29:06;79145.72;;;-147.06;100.00
54453;BME280;40363;52.270;10.546;2023-02-15T07:31:32;79127.22;;;-147.06;100.00
54453;BME280;40363;52.270;10.546;2023-02-15T07:33:59;79108.69;;;-147.06;100.00
54453;BME280;40363;52.270;10.546;2023-02-15T07:36:26;79071.69;;;-147.06;100.00
54453;BME280;40363;52.270;10.546;2023-02-15T07:38:52;79024.38;;;-147.06;99.21
54453;BME280;40363;52.270;10.546;2023-02-15T07:41:19;78981.19;;;-147.06;98.05
54453;BME280;40363;52.270;10.546;2023-02-15T07:43:46;78948.28;;;-147.06;97.90
54453;BME280;40363;52.270;10.546;2023-02-15T07:46:15;78890.69;;;-147.06;97.11
54453;BME280;40363;52.270;10.546;2023-02-15T07:48:43;78845.44;;;-147.06;95.95
54453;BME280;40363;52.270;10.546;2023-02-15T07:51:11;78845.44;;;-147.06;95.63
54453;BME280;40363;52.270;10.546;2023-02-15T07:53:38;78814.59;;;-147.06;95.42
54453;BME280;40363;52.270;10.546;2023-02-15T07:56:07;78802.25;;;-147.06;95.24
54453;BME280;40363;52.270;10.546;2023-02-15T07:58:34;78800.19;;;-147.06;96.44
54453;BME280;40363;52.270;10.546;2023-02-15T08:01:27;78789.91;;;-147.06;96.35
54453;BME280;40363;52.270;10.546;2023-02-15T08:04:01;78722.06;;;-147.06;95.17
54453;BME280;40363;52.270;10.546;2023-02-15T08:06:29;78689.16;;;-147.06;93.91
54453;BME280;40363;52.270;10.546;2023-02-15T08:08:56;78668.59;;;-147.06;92.93
54453;BME280;40363;52.270;10.546;2023-02-15T08:11:24;78623.34;;;-147.06;91.76
54453;BME280;40363;52.270;10.546;2023-02-15T08:13:52;78586.31;;;-147.06;90.59
54453;BME280;40363;52.270;10.546;2023-02-15T08:16:27;78518.47;;;-147.06;87.81
54453;BME280;40363;52.270;10.546;2023-02-15T08:18:54;78479.38;;;-147.06;86.55
54453;BME280;40363;52.270;10.546;2023-02-15T08:21:22;78506.13;;;-147.06;86.99
54453;BME280;40363;52.270;10.546;2023-02-15T08:23:48;78522.56;;;-147.06;87.31
54453;BME280;40363;52.270;10.546;2023-02-15T08:26:15;78510.22;;;-147.06;86.99
54453;BME280;40363;52.270;10.546;2023-02-15T08:28:43;78452.66;;;-147.06;86.07
54453;BME280;40363;52.270;10.546;2023-02-15T08:31:11;78351.91;;;-147.06;83.62
54453;BME280;40363;52.270;10.546;2023-02-15T08:33:40;78331.34;;;-147.06;81.46
54453;BME280;40363;52.270;10.546;2023-02-15T08:36:09;78329.28;;;-147.06;81.62
54453;BME280;40363;52.270;10.546;2023-02-15T08:38:36;78308.72;;;-147.06;81.13
54453;BME280;40363;52.270;10.546;2023-02-15T08:41:13;78253.19;;;-147.06;79.36
54453;BME280;40363;52.270;10.546;2023-02-15T08:43:40;78138.03;;;-147.06;76.34
54453;BME280;40363;52.270;10.546;2023-02-15T08:46:08;78092.81;;;-147.06;75.06
54453;BME280;40363;52.270;10.546;2023-02-15T08:48:36;78051.69;;;-147.06;74.09
54453;BME280;40363;52.270;10.546;2023-02-15T08:51:09;77998.22;;;-147.06;72.14
54453;BME280;40363;52.270;10.546;2023-02-15T08:53:37;77963.28;;;-147.06;71.20
54453;BME280;40363;52.270;10.546;2023-02-15T08:56:05;77938.59;;;-147.06;69.84
54453;BME280;40363;52.270;10.546;2023-02-15T08:58:32;77926.25;;;-147.06;70.36
54453;BME280;40363;52.270;10.546;2023-02-15T09:00:59;77903.63;;;-147.06;69.81
54453;BME280;40363;52.270;10.546;2023-02-15T09:03:27;77872.81;;;-147.06;69.14
54453;BME280;40363;52.270;10.546;2023-02-15T09:05:57;77868.69;;;-147.06;69.00
54453;BME280;40363;52.270;10.546;2023-02-15T09:08:26;77846.06;;;-147.06;68.73
54453;BME280;40363;52.270;10.546;2023-02-15T09:10:53;77874.84;;;-147.06;69.30
54453;BME280;40363;52.270;10.546;2023-02-15T09:13:20;77850.19;;;-147.06;70.07
54453;BME280;40363;52.270;10.546;2023-02-15T09:15:47;77817.28;;;-147.06;69.04
54453;BME280;40363;52.270;10.546;2023-02-15T09:18:14;77817.28;;;-147.06;68.67
54453;BME280;40363;52.270;10.546;2023-02-15T09:20:43;77788.50;;;-147.06;68.39
54453;BME280;40363;52.270;10.546;2023-02-15T09:23:09;77804.94;;;-147.06;69.03
54453;BME280;40363;52.270;10.546;2023-02-15T09:25:37;77753.53;;;-147.06;67.85
54453;BME280;40363;52.270;10.546;2023-02-15T09:28:04;77745.31;;;-147.06;67.75
54453;BME280;40363;52.270;10.546;2023-02-15T09:30:30;77733.00;;;-147.06;66.97
54453;BME280;40363;52.270;10.546;2023-02-15T09:32:57;77700.09;;;-147.06;65.46
54453;BME280;40363;52.270;10.546;2023-02-15T09:35:23;77691.88;;;-147.06;64.88
54453;BME280;40363;52.270;10.546;2023-02-15T09:37:50;77689.81;;;-147.06;64.77
54453;BME280;40363;52.270;10.546;2023-02-15T09:40:17;77663.09;;;-147.06;63.97
54453;BME280;40363;52.270;10.546;2023-02-15T09:43:08;77698.03;;;-147.06;63.79
54453;BME280;40363;52.270;10.546;2023-02-15T09:46:06;77710.38;;;-147.06;63.35
54453;BME280;40363;52.270;10.546;2023-02-15T09:48:41;77698.03;;;-147.06;62.80
54453;BME280;40363;52.270;10.546;2023-02-15T09:54:25;77714.47;;;-147.06;63.46
54453;BME280;40363;52.270;10.546;2023-02-15T09:57:00;77724.75;;;-147.06;63.60
54453;BME280;40363;52.270;10.546;2023-02-15T09:59:39;77710.38;;;-147.06;63.22
54453;BME280;40363;52.270;10.546;2023-02-15T10:02:22;77708.31;;;-147.06;63.74
54453;BME280;40363;52.270;10.546;2023-02-15T10:05:00;77708.31;;;-147.06;63.96
54453;BME280;40363;52.270;10.546;2023-02-15T10:07:48;77739.16;;;-147.06;65.26
54453;BME280;40363;52.270;10.546;2023-02-15T10:10:25;77751.50;;;-147.06;65.74
54453;BME280;40363;52.270;10.546;2023-02-15T10:13:04;77747.38;;;-147.06;65.79
54453;BME280;40363;52.270;10.546;2023-02-15T10:15:53;77726.81;;;-147.06;64.81
54453;BME280;40363;52.270;10.546;2023-02-15T10:18:37;77704.19;;;-147.06;63.65
54453;BME280;40363;52.270;10.546;2023-02-15T10:21:17;77681.59;;;-147.06;64.08
54453;BME280;40363;52.270;10.546;2023-02-15T10:24:05;77628.13;;;-147.06;62.32
54453;BME280;40363;52.270;10.546;2023-02-15T10:26:43;77601.41;;;-147.06;61.51
54453;BME280;40363;52.270;10.546;2023-02-15T10:29:17;77624.03;;;-147.06;60.73
54453;BME280;40363;52.270;10.546;2023-02-15T10:31:50;77552.06;;;-147.06;59.78
54453;BME280;40363;52.270;10.546;2023-02-15T10:34:19;77556.19;;;-147.06;59.62
54453;BME280;40363;52.270;10.546;2023-02-15T10:37:10;77527.38;;;-147.06;58.76
54453;BME280;40363;52.270;10.546;2023-02-15T10:39:50;77506.84;;;-147.06;58.38
54453;BME280;40363;52.270;10.546;2023-02-15T10:42:26;77471.88;;;-147.06;57.66
54453;BME280;40363;52.270;10.546;2023-02-15T10:45:07;77471.88;;;-147.06;57.46
54453;BME280;40363;52.270;10.546;2023-02-15T10:48:03;77453.38;;;-147.06;56.90
54453;BME280;40363;52.270;10.546;2023-02-15T10:50:45;77461.59;;;-147.06;57.22
54453;BME280;40363;52.270;10.546;2023-02-15T10:53:45;77393.75;;;-147.06;56.14
54453;BME280;40363;52.270;10.546;2023-02-15T10:56:19;77350.59;;;-147.06;54.99
54453;BME280;40363;52.270;10.546;2023-02-15T10:59:04;77305.34;;;-147.06;54.50
54453;BME280;40363;52.270;10.546;2023-02-15T11:01:40;77307.41;;;-147.06;54.31
54453;BME280;40363;52.270;10.546;2023-02-15T11:04:32;77284.81;;;-147.06;54.09
54453;BME280;40363;52.270;10.546;2023-02-15T11:07:06;77319.75;;;-147.06;54.64
54453;BME280;40363;52.270;10.546;2023-02-15T11:09:38;77334.13;;;-147.06;54.44
54453;BME280;40363;52.270;10.546;2023-02-15T11:12:11;77309.47;;;-147.06;53.90
54453;BME280;40363;52.270;10.546;2023-02-15T11:14:44;77327.97;;;-147.06;54.19
54453;BME280;40363;52.270;10.546;2023-02-15T11:17:17;77303.31;;;-147.06;53.22
54453;BME280;40363;52.270;10.546;2023-02-15T11:19:55;77369.09;;;-147.06;54.47
54453;BME280;40363;52.270;10.546;2023-02-15T11:22:25;77439.00;;;-147.06;55.88
54453;BME280;40363;52.270;10.546;2023-02-15T11:24:52;77513.00;;;-147.06;57.33
54453;BME280;40363;52.270;10.546;2023-02-15T11:27:21;77578.78;;;-147.06;58.62
54453;BME280;40363;52.270;10.546;2023-02-15T11:29:55;77595.25;;;-147.06;59.54
54453;BME280;40363;52.270;10.546;2023-02-15T11:32:28;77615.78;;;-147.06;60.61
54453;BME280;40363;52.270;10.546;2023-02-15T11:35:01;77636.34;;;-147.06;61.23
54453;BME280;40363;52.270;10.546;2023-02-15T11:37:33;77619.91;;;-147.06;60.42
54453;BME280;40363;52.270;10.546;2023-02-15T11:40:12;77656.91;;;-147.06;60.08
54453;BME280;40363;52.270;10.546;2023-02-15T11:42:42;77654.84;;;-147.06;60.05
54453;BME280;40363;52.270;10.546;2023-02-15T11:45:19;77644.59;;;-147.06;59.81
54453;BME280;40363;52.270;10.546;2023-02-15T11:47:48;77665.13;;;-147.06;59.98
54453;BME280;40363;52.270;10.546;2023-02-15T11:50:20;77661.03;;;-147.06;58.59
54453;BME280;40363;52.270;10.546;2023-02-15T11:52:48;77677.47;;;-147.06;58.70
54453;BME280;40363;52.270;10.546;2023-02-15T11:55:21;77675.41;;;-147.06;58.79
54453;BME280;40363;52.270;10.546;2023-02-15T11:57:53;77673.38;;;-147.06;58.44
54453;BME280;40363;52.270;10.546;2023-02-15T12:00:27;77667.19;;;-147.06;58.83
54453;BME280;40363;52.270;10.546;2023-02-15T12:03:04;77679.53;;;-147.06;58.59
54453;BME280;40363;52.270;10.546;2023-02-15T12:05:37;77671.31;;;-147.06;58.55
54453;BME280;40363;52.270;10.546;2023-02-15T12:08:16;77685.69;;;-147.06;58.48
54453;BME280;40363;52.270;10.546;2023-02-15T12:10:51;77673.38;;;-147.06;59.33
54453;BME280;40363;52.270;10.546;2023-02-15T12:13:20;77677.47;;;-147.06;59.83
54453;BME280;40363;52.270;10.546;2023-02-15T12:15:48;77667.19;;;-147.06;59.97
54453;BME280;40363;52.270;10.546;2023-02-15T12:18:20;77667.19;;;-147.06;59.54
54453;BME280;40363;52.270;10.546;2023-02-15T12:20:49;77658.97;;;-147.06;59.77
54453;BME280;40363;52.270;10.546;2023-02-15T12:23:17;77665.13;;;-147.06;59.57
54453;BME280;40363;52.270;10.546;2023-02-15T12:25:50;77685.69;;;-147.06;59.50
54453;BME280;40363;52.270;10.546;2023-02-15T12:28:24;77698.03;;;-147.06;59.48
54453;BME280;40363;52.270;10.546;2023-02-15T12:30:53;77702.16;;;-147.06;59.58
54453;BME280;40363;52.270;10.546;2023-02-15T12:33:27;77704.19;;;-147.06;59.68
54453;BME280;40363;52.270;10.546;2023-02-15T12:36:00;77706.25;;;-147.06;60.37
54453;BME280;40363;52.270;10.546;2023-02-15T12:38:29;77702.16;;;-147.06;60.25
54453;BME280;40363;52.270;10.546;2023-02-15T12:41:00;77704.19;;;-147.06;60.50
54453;BME280;40363;52.270;10.546;2023-02-15T12:43:31;77689.81;;;-147.06;60.76
54453;BME280;40363;52.270;10.546;2023-02-15T12:46:20;77691.88;;;-147.06;61.15
54453;BME280;40363;52.270;10.546;2023-02-15T12:48:48;77687.75;;;-147.06;61.54
54453;BME280;40363;52.270;10.546;2023-02-15T12:51:42;77677.47;;;-147.06;62.06
54453;BME280;40363;52.270;10.546;2023-02-15T12:56:57;77667.19;;;-147.06;62.45